createdAt,value
2022-12-03T00:04:05.054Z,10.03
2022-12-03T00:09:08.715Z,11.77
2022-12-03T00:14:13.769Z,12.23
2022-12-03T00:19:17.295Z,10.67
2022-12-03T00:24:20.883Z,11.33
2022-12-03T00:29:25.871Z,12.23
2022-12-03T00:34:29.447Z,11.50
2022-12-03T00:39:33.022Z,12.57
2022-12-03T00:44:38.021Z,10.97
2022-12-03T00:49:41.873Z,11.43
2022-12-03T00:54:45.585Z,11.27
2022-12-03T00:59:50.551Z,10.43
2022-12-03T01:04:54.321Z,11.70
2022-12-03T01:09:58.130Z,11.10
2022-12-03T01:15:03.357Z,11.60
2022-12-03T01:20:09.032Z,11.13
2022-12-03T01:25:12.584Z,10.63
2022-12-03T01:30:17.720Z,11.03
2022-12-03T01:35:21.203Z,10.37
2022-12-03T01:40:25.021Z,10.70
2022-12-03T01:45:29.980Z,11.13
2022-12-03T01:50:34.696Z,11.20
2022-12-03T01:55:38.920Z,11.43
2022-12-03T02:00:43.869Z,11.63
2022-12-03T02:05:47.384Z,11.03
2022-12-03T02:10:52.038Z,11.30
2022-12-03T02:15:57.144Z,10.93
2022-12-03T02:21:08.205Z,11.53
2022-12-03T02:26:13.156Z,10.50
2022-12-03T02:31:16.727Z,11.17
2022-12-03T02:36:20.612Z,10.37
2022-12-03T02:41:42.704Z,10.80
2022-12-03T02:46:46.215Z,9.97
2022-12-03T02:51:50.152Z,9.67
2022-12-03T02:56:55.113Z,10.37
2022-12-03T03:01:58.809Z,10.33
2022-12-03T03:07:02.344Z,10.73
2022-12-03T03:12:07.847Z,11.23
2022-12-03T03:17:11.746Z,9.27
2022-12-03T03:22:15.183Z,10.20
2022-12-03T03:27:20.166Z,10.23
2022-12-03T03:32:23.649Z,10.13
2022-12-03T03:37:27.500Z,10.77
2022-12-03T03:42:32.512Z,10.83
2022-12-03T03:47:36.163Z,10.27
2022-12-03T03:52:40.605Z,10.70
2022-12-03T03:57:45.481Z,9.90
2022-12-03T04:02:48.930Z,9.33
2022-12-03T04:07:52.520Z,9.73
2022-12-03T04:12:57.426Z,10.43
2022-12-03T04:18:18.048Z,8.90
2022-12-03T04:23:24.951Z,10.67
2022-12-03T04:28:50.801Z,9.73
2022-12-03T04:34:12.043Z,12.87
2022-12-03T04:39:15.489Z,10.07
2022-12-03T04:44:36.446Z,10.53
2022-12-03T04:49:41.743Z,10.90
2022-12-03T04:54:45.341Z,11.17
2022-12-03T04:59:50.154Z,10.50
2022-12-03T05:04:53.865Z,10.83
2022-12-03T05:09:57.575Z,10.63
2022-12-03T05:15:02.405Z,13.10
2022-12-03T05:20:23.973Z,10.50
2022-12-03T05:25:27.443Z,11.37
2022-12-03T05:30:32.336Z,10.20
2022-12-03T05:35:35.748Z,10.53
2022-12-03T05:40:39.302Z,10.77
2022-12-03T05:45:44.954Z,9.70
2022-12-03T05:50:48.637Z,10.40
2022-12-03T05:55:52.109Z,10.70
2022-12-03T06:00:56.958Z,9.07
2022-12-03T06:06:00.483Z,10.33
2022-12-03T06:11:04.078Z,10.90
2022-12-03T06:16:09.372Z,10.33
2022-12-03T06:21:12.886Z,12.30
2022-12-03T06:26:16.649Z,9.83
2022-12-03T06:31:21.542Z,10.97
2022-12-03T06:36:26.243Z,11.30
2022-12-03T06:41:29.717Z,10.80
2022-12-03T06:46:34.861Z,9.70
2022-12-03T06:51:38.846Z,10.70
2022-12-03T06:56:45.350Z,9.53
2022-12-03T07:01:50.841Z,8.97
2022-12-03T07:06:54.348Z,8.63
2022-12-03T07:11:57.793Z,9.17
2022-12-03T07:17:02.675Z,8.30
2022-12-03T07:22:06.398Z,9.83
2022-12-03T07:27:09.872Z,9.77
2022-12-03T07:32:14.823Z,9.43
2022-12-03T07:37:22.840Z,9.67
2022-12-03T07:42:27.195Z,8.80
2022-12-03T07:47:32.168Z,8.23
2022-12-03T07:52:35.662Z,9.33
2022-12-03T07:57:39.366Z,8.60
2022-12-03T08:02:44.501Z,8.50
2022-12-03T08:07:48.097Z,8.03
2022-12-03T08:12:51.730Z,8.33
2022-12-03T08:17:58.872Z,7.93
2022-12-03T08:23:08.771Z,8.03
2022-12-03T08:28:19.074Z,9.43
2022-12-03T08:33:28.762Z,9.10
2022-12-03T08:38:32.313Z,8.50
2022-12-03T08:43:42.185Z,9.00
2022-12-03T08:48:49.446Z,8.77
2022-12-03T08:54:01.821Z,8.70
2022-12-03T08:59:23.146Z,9.63
2022-12-03T09:04:31.947Z,11.33
2022-12-03T09:09:35.792Z,8.73
2022-12-03T09:14:39.215Z,10.70
2022-12-03T09:19:46.391Z,9.50
2022-12-03T09:24:49.986Z,10.60
2022-12-03T09:29:53.390Z,10.17
2022-12-03T09:34:58.524Z,9.90
2022-12-03T09:40:02.155Z,9.80
2022-12-03T09:45:11.036Z,10.20
2022-12-03T09:50:20.353Z,9.00
2022-12-03T09:55:26.764Z,9.50
2022-12-03T10:00:31.926Z,9.50
2022-12-03T10:05:36.786Z,8.80
2022-12-03T10:10:41.777Z,8.83
2022-12-03T10:15:45.116Z,8.87
2022-12-03T10:20:50.298Z,16.73
2022-12-03T10:25:55.511Z,8.87
2022-12-03T10:31:00.105Z,9.93
2022-12-03T10:36:20.569Z,9.37
2022-12-03T10:41:26.774Z,8.13
2022-12-03T10:46:30.333Z,8.17
2022-12-03T10:51:35.481Z,9.23
2022-12-03T10:56:38.923Z,7.57
2022-12-03T11:01:42.479Z,7.63
2022-12-03T11:06:47.540Z,7.97
2022-12-03T11:11:51.245Z,6.93
2022-12-03T11:17:10.142Z,7.37
2022-12-03T11:22:29.879Z,8.07
2022-12-03T11:27:33.305Z,8.37
2022-12-03T11:33:23.229Z,7.47
2022-12-03T11:38:56.905Z,6.93
2022-12-03T11:44:30.471Z,7.20
2022-12-03T11:49:37.677Z,8.03
2022-12-03T11:54:42.522Z,7.57
2022-12-03T12:00:02.560Z,6.93
2022-12-03T12:05:21.330Z,7.10
2022-12-03T12:10:49.896Z,6.97
2022-12-03T12:15:56.384Z,7.10
2022-12-03T12:21:32.899Z,9.67
2022-12-03T12:26:38.049Z,9.07
2022-12-03T12:31:41.632Z,7.77
2022-12-03T12:36:45.523Z,7.13
2022-12-03T12:41:53.197Z,7.87
2022-12-03T12:47:00.102Z,7.30
2022-12-03T12:52:06.343Z,9.03
2022-12-03T12:57:15.766Z,7.63
2022-12-03T13:02:44.923Z,8.37
2022-12-03T13:07:48.732Z,8.43
2022-12-03T13:12:53.552Z,7.47
2022-12-03T13:17:58.354Z,7.50
2022-12-03T13:23:01.781Z,7.03
2022-12-03T13:28:09.858Z,7.43
2022-12-03T13:33:19.112Z,7.70
2022-12-03T13:38:25.327Z,7.33
2022-12-03T13:43:35.998Z,8.13
2022-12-03T13:48:45.484Z,8.07
2022-12-03T13:53:49.012Z,8.27
2022-12-03T13:58:55.599Z,8.77
2022-12-03T14:03:59.224Z,10.07
2022-12-03T14:09:05.433Z,8.10
2022-12-03T14:14:12.327Z,8.30
2022-12-03T14:19:16.105Z,9.80
2022-12-03T14:24:19.545Z,8.90
2022-12-03T14:29:24.441Z,7.87
2022-12-03T14:34:29.358Z,8.97
2022-12-03T14:39:34.428Z,12.90
2022-12-03T14:44:42.324Z,9.23
2022-12-03T14:49:46.108Z,8.60
2022-12-03T14:54:49.637Z,9.43
2022-12-03T14:59:55.051Z,9.93
2022-12-03T15:05:01.063Z,9.00
2022-12-03T15:10:08.656Z,8.10
2022-12-03T15:15:14.250Z,6.83
2022-12-03T15:20:19.764Z,12.23
2022-12-03T15:25:25.639Z,9.37
2022-12-03T15:30:35.750Z,7.00
2022-12-03T15:35:39.477Z,7.40
2022-12-03T15:40:45.458Z,14.43
2022-12-03T15:45:52.044Z,11.43
2022-12-03T15:51:01.571Z,11.50
2022-12-03T15:56:06.683Z,10.73
2022-12-03T16:01:13.935Z,11.23
2022-12-03T16:06:18.743Z,9.80
2022-12-03T16:11:22.712Z,10.07
2022-12-03T16:16:28.425Z,8.67
2022-12-03T16:21:34.831Z,8.57
2022-12-03T16:26:38.626Z,11.03
2022-12-03T16:31:43.754Z,12.63
2022-12-03T16:36:47.922Z,11.33
2022-12-03T16:41:53.003Z,12.83
2022-12-03T16:46:59.576Z,12.37
2022-12-03T16:52:03.592Z,10.43
2022-12-03T16:57:08.882Z,10.53
2022-12-03T17:02:14.847Z,9.80
2022-12-03T17:07:19.124Z,10.90
2022-12-03T17:12:23.434Z,9.47
2022-12-03T17:17:28.889Z,9.67
2022-12-03T17:22:32.951Z,9.63
2022-12-03T17:27:40.805Z,10.27
2022-12-03T17:32:51.057Z,10.53
2022-12-03T17:37:54.728Z,9.20
2022-12-03T17:42:58.588Z,9.43
2022-12-03T17:48:04.868Z,8.03
2022-12-03T17:53:10.853Z,8.77
2022-12-03T17:58:17.858Z,11.57
2022-12-03T18:03:23.529Z,119.53
2022-12-03T18:08:27.556Z,99.80
2022-12-03T18:13:31.418Z,76.33
2022-12-03T18:18:36.895Z,47.87
2022-12-03T18:23:41.138Z,30.53
2022-12-03T18:28:46.835Z,19.53
2022-12-03T18:33:54.021Z,17.03
2022-12-03T18:39:01.339Z,12.10
2022-12-03T18:44:10.191Z,10.17
2022-12-03T18:49:16.033Z,10.40
2022-12-03T18:54:20.330Z,75.60
2022-12-03T18:59:24.981Z,74.63
2022-12-03T19:04:31.570Z,27.23
2022-12-03T19:09:37.442Z,14.07
2022-12-03T19:14:45.155Z,11.83
2022-12-03T19:19:54.486Z,33.70
2022-12-03T19:25:00.027Z,18.93
2022-12-03T19:30:05.920Z,40.00
2022-12-03T19:35:12.886Z,42.30
2022-12-03T19:40:18.444Z,27.87
2022-12-03T19:45:22.904Z,17.67
2022-12-03T19:50:34.494Z,24.40
2022-12-03T19:55:40.729Z,19.57
2022-12-03T20:00:45.391Z,13.80
2022-12-03T20:05:52.321Z,14.63
2022-12-03T20:10:57.476Z,15.07
2022-12-03T20:16:05.492Z,15.13
2022-12-03T20:21:12.954Z,11.50
2022-12-03T20:26:22.519Z,12.03
2022-12-03T20:31:31.424Z,13.13
2022-12-03T20:36:38.455Z,14.83
2022-12-03T20:41:43.232Z,17.20
2022-12-03T20:46:52.557Z,14.03
2022-12-03T20:52:04.501Z,13.80
2022-12-03T20:57:09.879Z,13.83
2022-12-03T21:02:15.699Z,15.53
2022-12-03T21:07:22.101Z,11.47
2022-12-03T21:12:29.330Z,13.07
2022-12-03T21:17:33.762Z,14.60
2022-12-03T21:22:39.923Z,11.57
2022-12-03T21:27:44.358Z,13.20
2022-12-03T21:32:48.575Z,12.90
2022-12-03T21:37:54.012Z,10.77
2022-12-03T21:43:03.730Z,11.10
2022-12-03T21:48:08.579Z,11.53
2022-12-03T21:53:15.213Z,12.00
2022-12-03T21:58:19.660Z,10.33
2022-12-03T22:03:24.076Z,10.60
2022-12-03T22:08:29.406Z,11.03
2022-12-03T22:13:33.289Z,12.07
2022-12-03T22:18:39.711Z,11.57
2022-12-03T22:23:45.385Z,11.50
2022-12-03T22:28:51.027Z,11.30
2022-12-03T22:33:54.645Z,11.50
2022-12-03T22:39:02.154Z,13.37
2022-12-03T22:44:06.011Z,12.03
2022-12-03T22:49:09.790Z,9.97
2022-12-03T22:54:18.283Z,11.40
2022-12-03T22:59:26.111Z,11.07
2022-12-03T23:04:29.853Z,11.47
2022-12-03T23:09:34.947Z,10.53
2022-12-03T23:14:38.560Z,10.40
2022-12-03T23:19:42.229Z,11.33
2022-12-03T23:24:47.340Z,10.80
2022-12-03T23:29:51.124Z,11.23
2022-12-03T23:34:55.269Z,11.33
2022-12-03T23:40:00.314Z,11.57
2022-12-03T23:45:03.993Z,10.80
2022-12-03T23:50:08.799Z,9.90
2022-12-03T23:55:13.893Z,11.50
